createdAt,value
2019-05-30T00:00:28.683Z,99702.57
2019-05-30T00:03:02.348Z,99704.61
2019-05-30T00:05:34.971Z,99699.14
2019-05-30T00:08:07.644Z,99696.14
2019-05-30T00:10:40.325Z,99702.91
2019-05-30T00:13:12.623Z,99696.31
2019-05-30T00:15:45.947Z,99704.23
2019-05-30T00:18:17.989Z,99697.28
2019-05-30T00:20:50.015Z,99695.92
2019-05-30T00:23:22.183Z,99694.36
2019-05-30T00:25:55.310Z,99683.19
2019-05-30T00:28:27.419Z,99683.25
2019-05-30T00:31:00.184Z,99690.98
2019-05-30T00:33:32.243Z,99685.33
2019-05-30T00:36:04.268Z,99685.42
2019-05-30T00:38:36.622Z,99687.93
2019-05-30T00:41:10.339Z,99685.89
2019-05-30T00:43:43.583Z,99682.29
2019-05-30T00:46:17.731Z,99685.42
2019-05-30T00:48:50.207Z,99686.11
2019-05-30T00:51:23.201Z,99688.05
2019-05-30T00:53:54.953Z,99689.63
2019-05-30T00:56:27.430Z,99688.94
2019-05-30T00:59:00.586Z,99687.81
2019-05-30T01:01:32.914Z,99686.64
2019-05-30T01:04:05.429Z,99684.08
2019-05-30T01:06:37.219Z,99683.85
2019-05-30T01:09:10.211Z,99685.28
2019-05-30T01:11:41.899Z,99676.94
2019-05-30T01:14:14.645Z,99678.58
2019-05-30T01:16:47.423Z,99674.59
2019-05-30T01:19:21.233Z,99672.27
2019-05-30T01:21:54.011Z,99669.58
2019-05-30T01:24:26.487Z,99668.16
2019-05-30T01:26:59.262Z,99671.38
2019-05-30T01:29:31.541Z,99662.01
2019-05-30T01:32:05.600Z,99670.58
2019-05-30T01:34:39.047Z,99669.95
2019-05-30T01:37:11.931Z,99667.77
2019-05-30T01:39:43.500Z,99664.83
2019-05-30T01:42:15.459Z,99669.44
2019-05-30T01:44:47.424Z,99675.59
2019-05-30T01:47:19.377Z,99677.46
2019-05-30T01:49:51.847Z,99674.02
2019-05-30T01:52:23.504Z,99670.12
2019-05-30T01:54:55.254Z,99672.52
2019-05-30T01:57:27.630Z,99664.41
2019-05-30T02:00:00.697Z,99670.73
2019-05-30T02:02:32.169Z,99677.33
2019-05-30T02:05:07.568Z,99674.50
2019-05-30T02:07:39.482Z,99675.77
2019-05-30T02:10:11.752Z,99678.16
2019-05-30T02:12:43.919Z,99682.38
2019-05-30T02:15:17.070Z,99687.78
2019-05-30T02:17:49.171Z,99687.84
2019-05-30T02:20:23.403Z,99686.81
2019-05-30T02:22:54.977Z,99694.23
2019-05-30T02:25:26.700Z,99690.98
2019-05-30T02:27:58.560Z,99689.73
2019-05-30T02:30:30.445Z,99695.94
2019-05-30T02:33:02.917Z,99696.27
2019-05-30T02:35:34.854Z,99699.98
2019-05-30T02:38:07.359Z,99700.89
2019-05-30T02:40:39.805Z,99695.92
2019-05-30T02:43:13.399Z,99698.63
2019-05-30T02:45:48.851Z,99703.45
2019-05-30T02:48:20.511Z,99705.82
2019-05-30T02:50:52.839Z,99696.12
2019-05-30T02:53:25.449Z,99699.98
2019-05-30T02:55:58.130Z,99701.84
2019-05-30T02:58:30.608Z,99706.25
2019-05-30T03:01:04.499Z,99699.61
2019-05-30T03:03:37.607Z,99701.97
2019-05-30T03:06:11.836Z,99701.22
2019-05-30T03:08:43.994Z,99698.48
2019-05-30T03:11:15.872Z,99701.22
2019-05-30T03:13:47.829Z,99700.34
2019-05-30T03:16:19.683Z,99695.99
2019-05-30T03:18:53.372Z,99696.24
2019-05-30T03:21:26.666Z,99694.47
2019-05-30T03:23:59.345Z,99692.01
2019-05-30T03:26:33.664Z,99703.33
2019-05-30T03:29:07.133Z,99711.31
2019-05-30T03:31:42.024Z,99712.47
2019-05-30T03:34:26.205Z,99710.05
2019-05-30T03:36:47.371Z,99702.19
2019-05-30T03:39:19.107Z,99694.75
2019-05-30T03:41:50.869Z,99698.32
2019-05-30T03:44:22.944Z,99696.66
2019-05-30T03:46:58.190Z,99698.93
2019-05-30T03:49:33.305Z,99698.01
2019-05-30T03:52:10.614Z,99697.34
2019-05-30T03:54:44.246Z,99701.08
2019-05-30T03:57:21.788Z,99708.52
2019-05-30T04:00:03.042Z,99705.03
2019-05-30T04:02:57.082Z,99698.92
2019-05-30T04:05:22.253Z,99699.38
2019-05-30T04:07:58.622Z,99700.41
2019-05-30T04:10:33.256Z,99702.83
2019-05-30T04:13:17.766Z,99707.95
2019-05-30T04:15:49.254Z,99711.75
2019-05-30T04:18:21.820Z,99720.78
2019-05-30T04:20:54.822Z,99723.44
2019-05-30T04:23:28.215Z,99731.44
2019-05-30T04:26:01.819Z,99730.77
2019-05-30T04:28:35.310Z,99731.72
2019-05-30T04:31:08.115Z,99731.97
2019-05-30T04:33:39.859Z,99736.25
2019-05-30T04:36:12.489Z,99742.52
2019-05-30T04:38:44.397Z,99740.01
2019-05-30T04:41:19.087Z,99743.56
2019-05-30T04:43:50.465Z,99734.37
2019-05-30T04:46:22.191Z,99740.03
2019-05-30T04:48:54.109Z,99736.27
2019-05-30T04:51:26.049Z,99733.80
2019-05-30T04:53:59.150Z,99732.55
2019-05-30T04:56:32.429Z,99728.30
2019-05-30T04:59:08.016Z,99730.06
2019-05-30T05:01:41.168Z,99731.72
2019-05-30T05:04:17.744Z,99731.05
2019-05-30T05:06:50.320Z,99735.84
2019-05-30T05:09:26.501Z,99735.93
2019-05-30T05:11:59.898Z,99736.09
2019-05-30T05:14:33.995Z,99739.25
2019-05-30T05:17:06.293Z,99738.61
2019-05-30T05:19:40.315Z,99744.36
2019-05-30T05:22:12.856Z,99747.20
2019-05-30T05:24:51.459Z,99751.39
2019-05-30T05:27:24.163Z,99752.72
2019-05-30T05:29:56.629Z,99756.55
2019-05-30T05:32:29.489Z,99753.84
2019-05-30T05:35:01.978Z,99761.38
2019-05-30T05:37:34.447Z,99755.77
2019-05-30T05:40:09.482Z,99746.91
2019-05-30T05:42:41.559Z,99760.25
2019-05-30T05:45:14.569Z,99746.75
2019-05-30T05:47:46.702Z,99748.98
2019-05-30T05:50:20.487Z,99753.23
2019-05-30T05:52:52.678Z,99755.30
2019-05-30T05:55:25.144Z,99758.81
2019-05-30T05:57:57.243Z,99758.00
2019-05-30T06:00:30.221Z,99762.12
2019-05-30T06:03:02.374Z,99755.09
2019-05-30T06:05:34.456Z,99766.53
2019-05-30T06:08:07.527Z,99757.23
2019-05-30T06:10:40.004Z,99757.39
2019-05-30T06:13:14.420Z,99757.22
2019-05-30T06:15:46.644Z,99754.16
2019-05-30T06:18:20.148Z,99750.13
2019-05-30T06:20:52.357Z,99750.56
2019-05-30T06:23:25.712Z,99749.39
2019-05-30T06:25:59.658Z,99760.29
2019-05-30T06:28:32.129Z,99748.13
2019-05-30T06:31:04.506Z,99748.26
2019-05-30T06:33:37.909Z,99747.02
2019-05-30T06:36:10.374Z,99756.12
2019-05-30T06:38:44.484Z,99750.00
2019-05-30T06:41:16.762Z,99756.13
2019-05-30T06:43:54.577Z,99750.84
2019-05-30T06:46:28.392Z,99751.71
2019-05-30T06:49:00.749Z,99756.46
2019-05-30T06:51:33.351Z,99759.57
2019-05-30T06:54:05.593Z,99753.36
2019-05-30T06:56:37.963Z,99761.37
2019-05-30T06:59:11.346Z,99766.63
2019-05-30T07:01:43.415Z,99761.37
2019-05-30T07:04:16.215Z,99761.36
2019-05-30T07:06:49.428Z,99763.53
2019-05-30T07:09:20.879Z,99767.42
2019-05-30T07:11:52.593Z,99766.56
2019-05-30T07:14:25.245Z,99763.90
2019-05-30T07:16:57.032Z,99765.87
2019-05-30T07:19:29.540Z,99767.39
2019-05-30T07:22:01.475Z,99770.81
2019-05-30T07:24:33.911Z,99773.04
2019-05-30T07:27:05.502Z,99763.80
2019-05-30T07:29:38.790Z,99765.91
2019-05-30T07:32:13.309Z,99764.19
2019-05-30T07:34:46.039Z,99769.22
2019-05-30T07:37:17.035Z,99761.30
2019-05-30T07:39:50.534Z,99768.11
2019-05-30T07:42:22.191Z,99763.69
2019-05-30T07:44:55.996Z,99761.84
2019-05-30T07:47:28.159Z,99765.52
2019-05-30T07:50:00.140Z,99765.98
2019-05-30T07:52:33.120Z,99763.11
2019-05-30T07:55:09.042Z,99770.47
2019-05-30T07:57:41.631Z,99762.98
2019-05-30T08:00:15.761Z,99771.39
2019-05-30T08:02:48.133Z,99770.14
2019-05-30T08:05:24.609Z,99774.30
2019-05-30T08:07:57.069Z,99764.73
2019-05-30T08:10:32.051Z,99775.05
2019-05-30T08:13:03.845Z,99771.21
2019-05-30T08:15:42.952Z,99765.20
2019-05-30T08:18:10.145Z,99766.28
2019-05-30T08:20:42.105Z,99767.43
2019-05-30T08:23:14.276Z,99765.64
2019-05-30T08:25:46.249Z,99762.52
2019-05-30T08:28:17.998Z,99754.09
2019-05-30T08:30:51.298Z,99757.63
2019-05-30T08:33:22.844Z,99765.91
2019-05-30T08:35:54.706Z,99763.88
2019-05-30T08:38:26.337Z,99758.90
2019-05-30T08:40:58.223Z,99760.06
2019-05-30T08:43:31.222Z,99766.97
2019-05-30T08:46:02.862Z,99768.25
2019-05-30T08:48:36.147Z,99763.94
2019-05-30T08:51:07.809Z,99763.72
2019-05-30T08:53:40.675Z,99771.70
2019-05-30T08:56:12.895Z,99767.13
2019-05-30T08:58:44.723Z,99772.23
2019-05-30T09:01:16.780Z,99764.05
2019-05-30T09:03:48.539Z,99764.59
2019-05-30T09:06:20.508Z,99768.92
2019-05-30T09:08:52.363Z,99767.52
2019-05-30T09:11:25.123Z,99768.80
2019-05-30T09:13:57.517Z,99765.89
2019-05-30T09:16:29.972Z,99775.27
2019-05-30T09:19:02.161Z,99767.64
2019-05-30T09:21:34.635Z,99764.69
2019-05-30T09:24:06.633Z,99761.34
2019-05-30T09:26:38.988Z,99763.33
2019-05-30T09:29:11.339Z,99770.85
2019-05-30T09:31:44.478Z,99763.38
2019-05-30T09:34:16.239Z,99771.00
2019-05-30T09:36:49.891Z,99766.91
2019-05-30T09:39:22.063Z,99771.30
2019-05-30T09:41:54.440Z,99768.02
2019-05-30T09:44:26.905Z,99761.06
2019-05-30T09:46:59.271Z,99767.70
2019-05-30T09:49:32.071Z,99765.81
2019-05-30T09:52:05.362Z,99767.52
2019-05-30T09:54:36.799Z,99760.06
2019-05-30T09:57:09.277Z,99764.92
2019-05-30T09:59:41.802Z,99765.27
2019-05-30T10:02:14.942Z,99766.09
2019-05-30T10:04:48.952Z,99758.48
2019-05-30T10:07:22.248Z,99762.03
2019-05-30T10:09:54.619Z,99753.91
2019-05-30T10:12:27.097Z,99759.43
2019-05-30T10:14:58.855Z,99752.38
2019-05-30T10:17:32.538Z,99752.80
2019-05-30T10:20:07.471Z,99755.86
2019-05-30T10:22:39.453Z,99757.62
2019-05-30T10:25:12.652Z,99753.06
2019-05-30T10:27:46.250Z,99748.54
2019-05-30T10:30:19.572Z,99745.20
2019-05-30T10:32:52.086Z,99748.54
2019-05-30T10:35:25.098Z,99754.49
2019-05-30T10:37:57.583Z,99753.81
2019-05-30T10:40:32.048Z,99753.14
2019-05-30T10:43:03.590Z,99749.95
2019-05-30T10:45:38.502Z,99748.53
2019-05-30T10:48:08.806Z,99751.06
2019-05-30T10:50:41.178Z,99750.97
2019-05-30T10:53:14.009Z,99754.88
2019-05-30T10:55:46.949Z,99758.56
2019-05-30T10:58:19.520Z,99754.06
2019-05-30T11:00:57.816Z,99752.57
2019-05-30T11:03:30.148Z,99750.80
2019-05-30T11:06:20.195Z,99744.13
2019-05-30T11:08:54.798Z,99747.64
2019-05-30T11:11:28.993Z,99743.09
2019-05-30T11:14:00.848Z,99753.14
2019-05-30T11:16:32.897Z,99753.61
2019-05-30T11:19:07.661Z,99752.69
2019-05-30T11:21:41.659Z,99760.10
2019-05-30T11:24:15.668Z,99756.58
2019-05-30T11:26:48.762Z,99760.16
2019-05-30T11:29:21.431Z,99762.78
2019-05-30T11:31:52.978Z,99757.23
2019-05-30T11:34:26.104Z,99767.59
2019-05-30T11:36:59.350Z,99761.45
2019-05-30T11:39:31.888Z,99751.47
2019-05-30T11:42:03.697Z,99752.95
2019-05-30T11:44:35.831Z,99752.18
2019-05-30T11:47:09.097Z,99747.89
2019-05-30T11:49:41.165Z,99755.83
2019-05-30T11:52:14.672Z,99756.57
2019-05-30T11:54:46.157Z,99755.06
2019-05-30T11:57:17.561Z,99755.80
2019-05-30T11:59:50.098Z,99757.21
2019-05-30T12:02:21.638Z,99759.55
2019-05-30T12:04:55.256Z,99761.91
2019-05-30T12:07:35.753Z,99757.17
2019-05-30T12:10:01.060Z,99756.98
2019-05-30T12:12:32.972Z,99761.27
2019-05-30T12:15:09.797Z,99761.84
2019-05-30T12:17:41.260Z,99758.94
2019-05-30T12:20:15.924Z,99756.82
2019-05-30T12:22:51.892Z,99750.14
2019-05-30T12:25:23.892Z,99751.89
2019-05-30T12:27:56.110Z,99752.93
2019-05-30T12:30:32.420Z,99752.36
2019-05-30T12:33:04.607Z,99756.87
2019-05-30T12:35:37.776Z,99749.25
2019-05-30T12:38:09.351Z,99749.98
2019-05-30T12:40:41.106Z,99757.07
2019-05-30T12:43:12.964Z,99752.45
2019-05-30T12:45:45.540Z,99763.10
2019-05-30T12:48:18.329Z,99762.48
2019-05-30T12:50:53.079Z,99768.30
2019-05-30T12:53:24.821Z,99759.73
2019-05-30T12:55:56.875Z,99763.02
2019-05-30T12:58:28.505Z,99766.30
2019-05-30T13:01:00.856Z,99758.55
2019-05-30T13:03:32.668Z,99765.36
2019-05-30T13:06:05.240Z,99759.38
2019-05-30T13:08:37.607Z,99763.02
2019-05-30T13:11:09.877Z,99764.09
2019-05-30T13:13:43.289Z,99763.45
2019-05-30T13:16:15.043Z,99768.89
2019-05-30T13:18:46.942Z,99771.81
2019-05-30T13:21:18.646Z,99769.17
2019-05-30T13:23:50.637Z,99762.08
2019-05-30T13:26:23.085Z,99753.71
2019-05-30T13:28:56.108Z,99757.82
2019-05-30T13:31:27.729Z,99757.07
2019-05-30T13:34:00.941Z,99763.06
2019-05-30T13:36:32.572Z,99757.58
2019-05-30T13:39:05.333Z,99752.38
2019-05-30T13:41:37.019Z,99751.17
2019-05-30T13:44:09.815Z,99747.42
2019-05-30T13:46:42.024Z,99748.48
2019-05-30T13:49:15.258Z,99739.77
2019-05-30T13:51:51.546Z,99737.20
2019-05-30T13:54:23.929Z,99735.57
2019-05-30T13:56:59.430Z,99736.93
2019-05-30T13:59:33.009Z,99737.30
2019-05-30T14:02:06.035Z,99738.88
2019-05-30T14:04:37.560Z,99746.77
2019-05-30T14:07:10.511Z,99747.59
2019-05-30T14:09:42.382Z,99736.96
2019-05-30T14:12:14.770Z,99738.50
2019-05-30T14:14:47.055Z,99736.80
2019-05-30T14:17:20.322Z,99736.61
2019-05-30T14:19:51.830Z,99737.83
2019-05-30T14:22:23.301Z,99740.38
2019-05-30T14:24:55.050Z,99734.63
2019-05-30T14:27:26.481Z,99729.99
2019-05-30T14:29:59.704Z,99730.55
2019-05-30T14:32:31.570Z,99729.72
2019-05-30T14:35:04.104Z,99735.27
2019-05-30T14:37:35.468Z,99736.06
2019-05-30T14:40:11.376Z,99739.39
2019-05-30T14:42:42.920Z,99744.27
2019-05-30T14:45:19.318Z,99747.05
2019-05-30T14:47:54.329Z,99739.89
2019-05-30T14:50:26.272Z,99740.37
2019-05-30T14:52:57.659Z,99747.02
2019-05-30T14:55:29.970Z,99751.70
2019-05-30T14:58:03.185Z,99739.33
2019-05-30T15:00:34.622Z,99738.80
2019-05-30T15:03:12.424Z,99738.77
2019-05-30T15:05:41.550Z,99740.95
2019-05-30T15:08:15.302Z,99750.05
2019-05-30T15:10:46.705Z,99746.44
2019-05-30T15:13:18.241Z,99753.32
2019-05-30T15:15:49.843Z,99743.66
2019-05-30T15:18:21.277Z,99739.31
2019-05-30T15:20:52.828Z,99737.70
2019-05-30T15:23:24.269Z,99729.75
2019-05-30T15:25:55.742Z,99733.26
2019-05-30T15:28:28.687Z,99735.41
2019-05-30T15:31:00.961Z,99725.52
2019-05-30T15:33:34.791Z,99726.33
2019-05-30T15:36:07.051Z,99727.49
2019-05-30T15:38:39.663Z,99723.09
2019-05-30T15:41:13.219Z,99721.70
2019-05-30T15:43:44.830Z,99720.94
2019-05-30T15:46:16.529Z,99717.35
2019-05-30T15:48:53.556Z,99718.52
2019-05-30T15:51:24.983Z,99720.16
2019-05-30T15:53:58.139Z,99717.44
2019-05-30T15:56:31.136Z,99711.06
2019-05-30T15:59:02.597Z,99716.21
2019-05-30T16:01:36.067Z,99714.48
2019-05-30T16:04:08.635Z,99716.94
2019-05-30T16:06:44.086Z,99717.45
2019-05-30T16:09:16.764Z,99722.42
2019-05-30T16:11:48.929Z,99722.75
2019-05-30T16:14:21.584Z,99720.89
2019-05-30T16:16:53.176Z,99722.05
2019-05-30T16:19:26.577Z,99725.65
2019-05-30T16:21:58.413Z,99729.56
2019-05-30T16:24:29.941Z,99731.47
2019-05-30T16:27:01.583Z,99731.47
2019-05-30T16:29:37.029Z,99732.58
2019-05-30T16:32:08.659Z,99735.59
2019-05-30T16:34:40.094Z,99736.36
2019-05-30T16:37:11.789Z,99732.23
2019-05-30T16:39:45.488Z,99740.97
2019-05-30T16:42:20.085Z,99739.55
2019-05-30T16:44:54.747Z,99742.00
2019-05-30T16:47:26.685Z,99739.51
2019-05-30T16:49:59.596Z,99731.76
2019-05-30T16:52:32.167Z,99727.06
2019-05-30T16:55:06.238Z,99728.89
2019-05-30T16:57:38.346Z,99733.44
2019-05-30T17:00:12.500Z,99734.44
2019-05-30T17:02:44.319Z,99731.58
2019-05-30T17:05:16.692Z,99740.77
2019-05-30T17:07:48.868Z,99737.38
2019-05-30T17:10:26.479Z,99738.37
2019-05-30T17:12:54.116Z,99740.44
2019-05-30T17:15:27.912Z,99740.91
2019-05-30T17:18:00.805Z,99737.54
2019-05-30T17:20:32.978Z,99735.53
2019-05-30T17:23:04.951Z,99735.44
2019-05-30T17:25:36.794Z,99730.98
2019-05-30T17:28:08.971Z,99734.98
2019-05-30T17:30:41.339Z,99740.26
2019-05-30T17:33:13.198Z,99738.80
2019-05-30T17:35:45.675Z,99739.56
2019-05-30T17:38:20.417Z,99749.98
2019-05-30T17:40:52.009Z,99749.98
2019-05-30T17:43:24.942Z,99748.86
2019-05-30T17:45:56.693Z,99754.20
2019-05-30T17:48:29.665Z,99748.09
2019-05-30T17:51:01.646Z,99751.67
2019-05-30T17:53:33.516Z,99747.03
2019-05-30T17:56:05.465Z,99760.29
2019-05-30T17:58:37.329Z,99760.73
2019-05-30T18:01:09.293Z,99763.41
2019-05-30T18:03:41.864Z,99766.91
2019-05-30T18:06:13.621Z,99764.84
2019-05-30T18:08:45.525Z,99772.20
2019-05-30T18:11:17.341Z,99769.39
2019-05-30T18:13:49.826Z,99771.25
2019-05-30T18:16:23.052Z,99777.50
2019-05-30T18:18:54.839Z,99781.55
2019-05-30T18:21:27.472Z,99776.88
2019-05-30T18:23:59.248Z,99781.39
2019-05-30T18:26:31.896Z,99787.17
2019-05-30T18:29:03.544Z,99783.46
2019-05-30T18:31:35.298Z,99787.66
2019-05-30T18:34:07.872Z,99788.42
2019-05-30T18:36:39.842Z,99788.14
2019-05-30T18:39:11.667Z,99785.98
2019-05-30T18:41:43.660Z,99787.91
2019-05-30T18:44:16.547Z,99788.18
2019-05-30T18:46:49.226Z,99787.44
2019-05-30T18:49:24.961Z,99791.00
2019-05-30T18:51:56.836Z,99792.98
2019-05-30T18:54:30.657Z,99792.73
2019-05-30T18:57:02.607Z,99786.73
2019-05-30T18:59:37.419Z,99781.61
2019-05-30T19:02:09.197Z,99779.30
2019-05-30T19:04:40.849Z,99785.75
2019-05-30T19:07:14.351Z,99790.12
2019-05-30T19:09:46.814Z,99794.25
2019-05-30T19:12:28.051Z,99795.81
2019-05-30T19:15:03.868Z,99792.02
2019-05-30T19:17:36.636Z,99796.26
2019-05-30T19:20:09.614Z,99796.23
2019-05-30T19:22:43.434Z,99797.99
2019-05-30T19:25:15.280Z,99797.00
2019-05-30T19:27:47.052Z,99790.05
2019-05-30T19:30:19.178Z,99797.37
2019-05-30T19:32:50.767Z,99798.07
2019-05-30T19:35:24.466Z,99798.53
2019-05-30T19:37:56.855Z,99795.44
2019-05-30T19:40:29.493Z,99798.61
2019-05-30T19:43:02.721Z,99792.95
2019-05-30T19:45:36.515Z,99791.81
2019-05-30T19:48:09.534Z,99791.35
2019-05-30T19:50:41.746Z,99790.90
2019-05-30T19:53:17.829Z,99790.16
2019-05-30T19:55:51.530Z,99786.36
2019-05-30T19:58:23.563Z,99783.84
2019-05-30T20:00:58.881Z,99786.55
2019-05-30T20:03:39.510Z,99784.52
2019-05-30T20:06:05.024Z,99794.41
2019-05-30T20:08:53.325Z,99794.31
2019-05-30T20:11:10.705Z,99792.09
2019-05-30T20:13:42.989Z,99793.91
2019-05-30T20:16:15.372Z,99792.80
2019-05-30T20:18:48.003Z,99806.95
2019-05-30T20:21:19.964Z,99797.00
2019-05-30T20:23:56.458Z,99806.21
2019-05-30T20:26:27.531Z,99809.61
2019-05-30T20:29:00.873Z,99809.47
2019-05-30T20:31:33.562Z,99806.93
2019-05-30T20:34:05.534Z,99812.20
2019-05-30T20:36:38.491Z,99802.55
2019-05-30T20:39:12.306Z,99799.38
2019-05-30T20:41:47.154Z,99804.59
2019-05-30T20:44:19.535Z,99803.54
2019-05-30T20:46:52.966Z,99799.43
2019-05-30T20:49:24.555Z,99802.14
2019-05-30T20:51:57.961Z,99803.07
2019-05-30T20:54:29.711Z,99804.64
2019-05-30T20:57:02.799Z,99800.48
2019-05-30T20:59:34.967Z,99802.01
2019-05-30T21:02:07.961Z,99797.25
2019-05-30T21:04:40.935Z,99794.83
2019-05-30T21:07:12.908Z,99790.70
2019-05-30T21:09:46.223Z,99801.05
2019-05-30T21:12:36.402Z,99795.18
2019-05-30T21:14:54.680Z,99793.42
2019-05-30T21:17:28.846Z,99784.41
2019-05-30T21:20:03.269Z,99785.76
2019-05-30T21:22:36.495Z,99787.75
2019-05-30T21:25:08.726Z,99785.28
2019-05-30T21:27:40.920Z,99787.47
2019-05-30T21:30:13.722Z,99783.20
2019-05-30T21:32:48.077Z,99784.99
2019-05-30T21:35:20.248Z,99779.78
2019-05-30T21:37:55.709Z,99780.94
2019-05-30T21:40:27.978Z,99776.84
2019-05-30T21:43:06.380Z,99784.36
2019-05-30T21:45:33.542Z,99786.94
2019-05-30T21:48:06.423Z,99778.89
2019-05-30T21:50:39.280Z,99780.77
2019-05-30T21:53:12.909Z,99780.53
2019-05-30T21:55:46.049Z,99781.64
2019-05-30T21:58:17.813Z,99782.92
2019-05-30T22:00:58.666Z,99783.70
2019-05-30T22:03:33.154Z,99772.86
2019-05-30T22:06:05.015Z,99774.00
2019-05-30T22:08:36.570Z,99773.86
2019-05-30T22:11:08.532Z,99781.84
2019-05-30T22:13:41.474Z,99774.08
2019-05-30T22:16:13.167Z,99782.58
2019-05-30T22:18:48.072Z,99783.73
2019-05-30T22:21:20.368Z,99784.11
2019-05-30T22:23:52.588Z,99779.80
2019-05-30T22:26:26.057Z,99776.55
2019-05-30T22:28:58.417Z,99770.11
2019-05-30T22:31:31.190Z,99771.33
2019-05-30T22:34:04.381Z,99771.50
2019-05-30T22:36:37.171Z,99770.98
2019-05-30T22:39:10.765Z,99780.45
2019-05-30T22:41:43.832Z,99776.55
2019-05-30T22:44:15.710Z,99780.39
2019-05-30T22:46:48.106Z,99775.97
2019-05-30T22:49:20.868Z,99780.77
2019-05-30T22:51:53.209Z,99777.42
2019-05-30T22:54:25.821Z,99777.02
2019-05-30T22:57:01.078Z,99779.77
2019-05-30T22:59:31.278Z,99780.68
2019-05-30T23:02:03.137Z,99771.11
2019-05-30T23:04:35.840Z,99778.07
2019-05-30T23:07:07.986Z,99777.41
2019-05-30T23:09:40.362Z,99774.09
2019-05-30T23:12:12.423Z,99766.58
2019-05-30T23:14:45.910Z,99766.91
2019-05-30T23:17:18.915Z,99771.67
2019-05-30T23:19:51.680Z,99764.19
2019-05-30T23:22:25.903Z,99769.97
2019-05-30T23:24:57.977Z,99767.15
2019-05-30T23:27:30.340Z,99761.33
2019-05-30T23:30:02.411Z,99754.19
2019-05-30T23:32:35.290Z,99759.10
2019-05-30T23:35:08.563Z,99755.76
2019-05-30T23:37:40.650Z,99754.95
2019-05-30T23:40:13.005Z,99753.67
2019-05-30T23:42:44.694Z,99755.20
2019-05-30T23:45:19.213Z,99756.83
2019-05-30T23:47:51.981Z,99743.95
2019-05-30T23:50:23.717Z,99745.62
2019-05-30T23:52:56.280Z,99747.85
2019-05-30T23:55:28.183Z,99748.09
2019-05-30T23:58:01.472Z,99746.42
